createdAt,value
2018-07-20T00:00:02.793Z,11.63
2018-07-20T00:04:57.840Z,12.40
2018-07-20T00:09:52.159Z,12.77
2018-07-20T00:14:47.346Z,12.50
2018-07-20T00:19:42.260Z,11.97
2018-07-20T00:24:36.888Z,13.07
2018-07-20T00:29:31.704Z,12.47
2018-07-20T00:34:26.732Z,12.73
2018-07-20T00:39:21.528Z,14.30
2018-07-20T00:44:15.706Z,12.23
2018-07-20T00:49:10.317Z,13.07
2018-07-20T00:54:06.456Z,14.50
2018-07-20T00:59:03.248Z,14.60
2018-07-20T01:03:58.179Z,15.30
2018-07-20T01:08:52.821Z,16.00
2018-07-20T01:13:47.373Z,14.67
2018-07-20T01:18:42.288Z,14.60
2018-07-20T01:23:37.490Z,15.17
2018-07-20T01:28:31.830Z,14.33
2018-07-20T01:33:27.650Z,13.90
2018-07-20T01:38:22.455Z,14.33
2018-07-20T01:43:16.927Z,14.13
2018-07-20T01:48:11.483Z,14.67
2018-07-20T01:53:06.299Z,14.47
2018-07-20T01:58:01.211Z,13.70
2018-07-20T02:02:56.739Z,15.27
2018-07-20T02:07:50.943Z,14.47
2018-07-20T02:12:45.479Z,14.57
2018-07-20T02:17:39.933Z,13.77
2018-07-20T02:22:35.009Z,13.70
2018-07-20T02:27:30.084Z,13.43
2018-07-20T02:32:24.969Z,14.67
2018-07-20T02:37:19.738Z,14.20
2018-07-20T02:42:15.427Z,13.53
2018-07-20T02:47:20.495Z,16.13
2018-07-20T02:52:15.075Z,15.23
2018-07-20T02:57:10.090Z,19.80
2018-07-20T03:02:07.252Z,26.10
2018-07-20T03:07:04.184Z,16.13
2018-07-20T03:11:59.461Z,17.50
2018-07-20T03:16:54.819Z,15.30
2018-07-20T03:21:49.329Z,16.80
2018-07-20T03:26:45.262Z,15.30
2018-07-20T03:31:40.111Z,16.63
2018-07-20T03:36:34.907Z,16.83
2018-07-20T03:41:29.487Z,16.30
2018-07-20T03:46:26.453Z,16.03
2018-07-20T03:51:23.207Z,16.63
2018-07-20T03:56:19.679Z,15.87
2018-07-20T04:01:14.682Z,17.40
2018-07-20T04:06:10.062Z,15.13
2018-07-20T04:11:06.270Z,15.10
2018-07-20T04:16:01.129Z,17.40
2018-07-20T04:20:56.111Z,14.37
2018-07-20T04:25:52.595Z,14.63
2018-07-20T04:30:50.036Z,10.40
2018-07-20T04:35:45.817Z,11.90
2018-07-20T04:40:40.106Z,9.83
2018-07-20T04:45:35.260Z,10.97
2018-07-20T04:50:32.186Z,9.07
2018-07-20T04:55:27.626Z,10.33
2018-07-20T05:00:22.531Z,9.57
2018-07-20T05:05:17.036Z,9.10
2018-07-20T05:10:14.565Z,9.23
2018-07-20T05:15:11.026Z,9.27
2018-07-20T05:20:06.675Z,9.43
2018-07-20T05:25:03.718Z,9.87
2018-07-20T05:29:59.726Z,9.03
2018-07-20T05:34:54.956Z,9.33
2018-07-20T05:39:49.518Z,10.30
2018-07-20T05:44:44.514Z,11.40
2018-07-20T05:49:38.997Z,9.10
2018-07-20T05:54:34.391Z,9.60
2018-07-20T05:59:29.396Z,9.37
2018-07-20T06:04:24.362Z,8.27
2018-07-20T06:09:18.899Z,7.73
2018-07-20T06:14:13.648Z,7.13
2018-07-20T06:19:09.044Z,6.70
2018-07-20T06:24:05.164Z,8.60
2018-07-20T06:29:01.176Z,13.00
2018-07-20T06:33:58.310Z,8.80
2018-07-20T06:38:53.445Z,8.60
2018-07-20T06:43:49.863Z,9.13
2018-07-20T06:48:44.867Z,7.50
2018-07-20T06:53:39.980Z,8.37
2018-07-20T06:58:36.925Z,10.03
2018-07-20T07:03:32.996Z,9.37
2018-07-20T07:08:28.879Z,11.40
2018-07-20T07:13:24.268Z,7.80
2018-07-20T07:18:19.185Z,8.70
2018-07-20T07:23:14.256Z,7.87
2018-07-20T07:28:09.408Z,6.97
2018-07-20T07:33:06.541Z,7.97
2018-07-20T07:38:08.791Z,7.87
2018-07-20T07:43:04.854Z,4.70
2018-07-20T07:47:59.533Z,4.93
2018-07-20T07:52:54.111Z,5.90
2018-07-20T07:57:49.364Z,3.70
2018-07-20T08:02:46.225Z,4.90
2018-07-20T08:07:41.480Z,5.17
2018-07-20T08:12:36.927Z,7.57
2018-07-20T08:17:33.814Z,3.47
2018-07-20T08:22:29.191Z,5.60
2018-07-20T08:27:25.276Z,7.40
2018-07-20T08:32:19.945Z,5.80
2018-07-20T08:37:15.308Z,3.60
2018-07-20T08:42:11.192Z,6.43
2018-07-20T08:47:11.052Z,4.40
2018-07-20T08:52:07.316Z,5.07
2018-07-20T08:57:05.673Z,4.12
2018-07-20T09:02:02.142Z,4.03
2018-07-20T09:07:07.907Z,5.00
2018-07-20T09:12:06.329Z,5.70
2018-07-20T09:17:01.946Z,3.72
2018-07-20T09:21:58.063Z,6.17
2018-07-20T09:26:52.982Z,7.13
2018-07-20T09:31:51.609Z,5.30
2018-07-20T09:36:46.539Z,4.40
2018-07-20T09:41:42.973Z,5.57
2018-07-20T09:46:37.661Z,2.77
2018-07-20T09:51:32.667Z,5.70
2018-07-20T09:56:27.741Z,3.23
2018-07-20T10:01:24.188Z,3.33
2018-07-20T10:06:19.365Z,4.60
2018-07-20T10:11:37.110Z,3.20
2018-07-20T10:16:39.419Z,3.98
2018-07-20T10:21:35.087Z,6.35
2018-07-20T10:26:29.690Z,3.42
2018-07-20T10:31:25.903Z,5.40
2018-07-20T10:36:21.293Z,2.90
2018-07-20T10:41:16.877Z,7.33
2018-07-20T10:46:11.952Z,5.77
2018-07-20T10:51:07.177Z,3.20
2018-07-20T10:56:04.830Z,4.03
2018-07-20T11:01:00.388Z,7.10
2018-07-20T11:05:55.332Z,4.13
2018-07-20T11:10:51.976Z,7.33
2018-07-20T11:15:53.174Z,4.67
2018-07-20T11:20:48.150Z,6.53
2018-07-20T11:25:44.357Z,5.03
2018-07-20T11:30:39.527Z,7.27
2018-07-20T11:35:34.853Z,3.13
2018-07-20T11:40:29.652Z,5.43
2018-07-20T11:45:25.939Z,5.03
2018-07-20T11:50:20.228Z,9.37
2018-07-20T11:55:14.751Z,3.83
2018-07-20T12:00:10.759Z,6.30
2018-07-20T12:05:07.907Z,8.40
2018-07-20T12:10:03.135Z,7.67
2018-07-20T12:14:58.837Z,6.83
2018-07-20T12:19:53.949Z,4.67
2018-07-20T12:24:49.992Z,6.17
2018-07-20T12:29:44.958Z,6.53
2018-07-20T12:34:40.572Z,6.57
2018-07-20T12:39:35.323Z,4.13
2018-07-20T12:44:30.086Z,8.23
2018-07-20T12:49:25.249Z,6.57
2018-07-20T12:54:20.537Z,7.57
2018-07-20T12:59:15.022Z,4.77
2018-07-20T13:04:10.028Z,4.60
2018-07-20T13:09:06.991Z,4.13
2018-07-20T13:14:03.342Z,6.33
2018-07-20T13:18:59.582Z,14.47
2018-07-20T13:23:54.849Z,5.43
2018-07-20T13:28:50.746Z,5.83
2018-07-20T13:33:46.816Z,7.07
2018-07-20T13:38:41.895Z,9.07
2018-07-20T13:43:38.378Z,6.50
2018-07-20T13:48:33.266Z,6.97
2018-07-20T13:53:30.413Z,5.70
2018-07-20T13:58:25.170Z,7.27
2018-07-20T14:03:20.464Z,7.53
2018-07-20T14:08:16.347Z,5.20
2018-07-20T14:13:11.700Z,3.53
2018-07-20T14:18:06.805Z,6.27
2018-07-20T14:23:01.908Z,5.77
2018-07-20T14:27:56.254Z,13.57
2018-07-20T14:32:51.867Z,6.43
2018-07-20T14:37:46.219Z,4.00
2018-07-20T14:42:41.675Z,13.67
2018-07-20T14:47:37.098Z,6.20
2018-07-20T14:52:32.422Z,6.03
2018-07-20T14:57:27.353Z,3.90
2018-07-20T15:02:22.546Z,3.10
2018-07-20T15:07:17.576Z,3.80
2018-07-20T15:12:19.540Z,6.53
2018-07-20T15:17:15.383Z,5.80
2018-07-20T15:22:10.256Z,4.47
2018-07-20T15:27:07.870Z,5.57
2018-07-20T15:32:07.631Z,6.87
2018-07-20T15:37:25.750Z,3.33
2018-07-20T15:42:29.949Z,5.90
2018-07-20T15:47:24.638Z,6.93
2018-07-20T15:57:17.060Z,5.03
2018-07-20T16:02:11.896Z,5.50
2018-07-20T16:07:06.860Z,5.50
2018-07-20T16:12:02.700Z,6.73
2018-07-20T16:16:59.313Z,7.93
2018-07-20T16:21:54.789Z,7.50
2018-07-20T16:26:49.475Z,3.63
2018-07-20T16:31:45.096Z,4.83
2018-07-20T16:36:40.638Z,8.47
2018-07-20T16:41:35.402Z,6.10
2018-07-20T16:46:31.388Z,6.70
2018-07-20T16:51:26.441Z,4.07
2018-07-20T16:56:21.159Z,5.47
2018-07-20T17:01:16.506Z,7.07
2018-07-20T17:06:10.793Z,5.30
2018-07-20T17:11:06.468Z,8.37
2018-07-20T17:16:02.986Z,4.97
2018-07-20T17:20:58.782Z,7.17
2018-07-20T17:25:53.263Z,7.83
2018-07-20T17:30:49.952Z,5.60
2018-07-20T17:35:44.788Z,5.03
2018-07-20T17:40:40.206Z,7.50
2018-07-20T17:45:35.337Z,6.57
2018-07-20T17:50:31.746Z,8.80
2018-07-20T17:55:28.464Z,5.27
2018-07-20T18:00:23.463Z,5.03
2018-07-20T18:05:20.096Z,6.67
2018-07-20T18:10:15.919Z,4.90
2018-07-20T18:15:11.847Z,5.07
2018-07-20T18:20:06.898Z,5.97
2018-07-20T18:25:02.889Z,5.63
2018-07-20T18:29:57.901Z,9.80
2018-07-20T18:34:52.284Z,6.40
2018-07-20T18:39:54.390Z,8.67
2018-07-20T18:44:49.155Z,14.40
2018-07-20T18:49:45.120Z,16.00
2018-07-20T18:54:40.384Z,12.80
2018-07-20T18:59:35.025Z,16.20
2018-07-20T19:04:30.134Z,12.13
2018-07-20T19:09:24.691Z,8.13
2018-07-20T19:14:19.633Z,6.83
2018-07-20T19:19:14.336Z,9.47
2018-07-20T19:24:11.054Z,8.00
2018-07-20T19:29:05.492Z,14.63
2018-07-20T19:34:00.115Z,12.30
2018-07-20T19:38:54.857Z,11.73
2018-07-20T19:43:50.033Z,7.70
2018-07-20T19:48:45.088Z,15.00
2018-07-20T19:53:40.056Z,10.63
2018-07-20T19:58:38.763Z,11.47
2018-07-20T20:03:33.939Z,10.17
2018-07-20T20:08:28.402Z,8.23
2018-07-20T20:13:22.935Z,10.40
2018-07-20T20:18:17.846Z,9.23
2018-07-20T20:23:12.795Z,16.20
2018-07-20T20:28:07.329Z,7.10
2018-07-20T20:33:02.875Z,22.33
2018-07-20T20:37:56.914Z,10.83
2018-07-20T20:42:52.503Z,14.20
2018-07-20T20:47:47.849Z,9.63
2018-07-20T20:52:41.942Z,11.67
2018-07-20T20:57:36.342Z,13.67
2018-07-20T21:02:32.879Z,27.97
2018-07-20T21:07:34.564Z,7.90
2018-07-20T21:12:29.325Z,8.40
2018-07-20T21:17:25.742Z,9.40
2018-07-20T21:22:20.306Z,10.93
2018-07-20T21:27:15.352Z,11.67
2018-07-20T21:32:10.302Z,9.60
2018-07-20T21:37:07.852Z,8.20
2018-07-20T21:42:04.480Z,8.00
2018-07-20T21:46:59.229Z,9.77
2018-07-20T21:51:53.901Z,14.40
2018-07-20T21:56:49.228Z,8.70
2018-07-20T22:01:43.774Z,8.43
2018-07-20T22:06:38.775Z,9.90
2018-07-20T22:11:33.223Z,14.93
2018-07-20T22:16:28.608Z,11.37
2018-07-20T22:21:23.856Z,11.13
2018-07-20T22:26:19.672Z,9.67
2018-07-20T22:31:14.278Z,17.33
2018-07-20T22:36:10.839Z,12.73
2018-07-20T22:41:05.419Z,11.30
2018-07-20T22:46:00.545Z,12.30
2018-07-20T22:50:55.226Z,10.00
2018-07-20T22:55:50.037Z,10.23
2018-07-20T23:00:44.785Z,11.83
2018-07-20T23:05:47.239Z,14.77
2018-07-20T23:10:46.534Z,11.77
2018-07-20T23:15:41.325Z,9.00
2018-07-20T23:20:36.690Z,9.90
2018-07-20T23:25:31.565Z,10.07
2018-07-20T23:30:26.680Z,15.10
2018-07-20T23:35:21.189Z,11.70
2018-07-20T23:40:15.997Z,8.30
2018-07-20T23:45:10.621Z,16.97
2018-07-20T23:50:07.036Z,13.57
2018-07-20T23:55:01.968Z,9.70
2018-07-20T23:59:56.970Z,9.17
